sensor_id;sensor_type;location;lat;lon;timestamp;pressure;altitude;pressure_sealevel;temperature;humidity
24013;BME280;12220;50.194;18.948;2023-05-07T00:01:12;102014.61;;;12.46;72.92
24013;BME280;12220;50.194;18.948;2023-05-07T00:03:19;102020.92;;;12.48;72.91
24013;BME280;12220;50.194;18.948;2023-05-07T00:05:22;102019.92;;;12.49;72.92
24013;BME280;12220;50.194;18.948;2023-05-07T00:07:23;102024.37;;;12.52;72.92
24013;BME280;12220;50.194;18.948;2023-05-07T00:09:24;102028.80;;;12.54;72.87
24013;BME280;12220;50.194;18.948;2023-05-07T00:11:34;102030.48;;;12.57;72.79
24013;BME280;12220;50.194;18.948;2023-05-07T00:13:36;102027.56;;;12.60;72.69
24013;BME280;12220;50.194;18.948;2023-05-07T00:15:37;102029.34;;;12.61;72.55
24013;BME280;12220;50.194;18.948;2023-05-07T00:17:38;102031.09;;;12.62;72.52
24013;BME280;12220;50.194;18.948;2023-05-07T00:19:49;102028.44;;;12.61;72.50
24013;BME280;12220;50.194;18.948;2023-05-07T00:21:50;102036.67;;;12.61;72.46
24013;BME280;12220;50.194;18.948;2023-05-07T00:23:55;102030.31;;;12.60;72.43
24013;BME280;12220;50.194;18.948;2023-05-07T00:25:56;102023.94;;;12.60;72.48
24013;BME280;12220;50.194;18.948;2023-05-07T00:28:04;102052.56;;;12.55;72.65
24013;BME280;12220;50.194;18.948;2023-05-07T00:30:06;102034.38;;;12.53;72.50
24013;BME280;12220;50.194;18.948;2023-05-07T00:32:08;102029.06;;;12.50;72.41
24013;BME280;12220;50.194;18.948;2023-05-07T00:34:09;102032.88;;;12.47;72.40
24013;BME280;12220;50.194;18.948;2023-05-07T00:36:19;102036.84;;;12.42;72.27
24013;BME280;12220;50.194;18.948;2023-05-07T00:38:20;102043.41;;;12.39;72.36
24013;BME280;12220;50.194;18.948;2023-05-07T00:40:22;102049.98;;;12.36;72.43
24013;BME280;12220;50.194;18.948;2023-05-07T00:42:23;102048.98;;;12.37;72.49
24013;BME280;12220;50.194;18.948;2023-05-07T00:44:34;102042.62;;;12.37;72.45
24013;BME280;12220;50.194;18.948;2023-05-07T00:46:35;102051.03;;;12.34;72.49
24013;BME280;12220;50.194;18.948;2023-05-07T00:48:37;102048.38;;;12.32;72.43
24013;BME280;12220;50.194;18.948;2023-05-07T00:50:38;102043.94;;;12.30;72.43
24013;BME280;12220;50.194;18.948;2023-05-07T00:52:52;102048.73;;;12.26;72.47
24013;BME280;12220;50.194;18.948;2023-05-07T00:54:54;102042.42;;;12.24;72.44
24013;BME280;12220;50.194;18.948;2023-05-07T00:56:56;102047.13;;;12.22;72.46
24013;BME280;12220;50.194;18.948;2023-05-07T00:58:57;102046.40;;;12.18;72.49
24013;BME280;12220;50.194;18.948;2023-05-07T01:01:04;102047.40;;;12.17;72.54
24013;BME280;12220;50.194;18.948;2023-05-07T01:03:05;102044.73;;;12.16;72.56
24013;BME280;12220;50.194;18.948;2023-05-07T01:05:12;102046.58;;;12.15;72.59
24013;BME280;12220;50.194;18.948;2023-05-07T01:07:14;102042.78;;;12.18;72.61
24013;BME280;12220;50.194;18.948;2023-05-07T01:09:19;102048.27;;;12.18;72.53
24013;BME280;12220;50.194;18.948;2023-05-07T01:11:22;102044.66;;;12.17;72.52
24013;BME280;12220;50.194;18.948;2023-05-07T01:13:24;102044.66;;;12.17;72.56
24013;BME280;12220;50.194;18.948;2023-05-07T01:15:26;102053.76;;;12.18;72.54
24013;BME280;12220;50.194;18.948;2023-05-07T01:17:35;102047.40;;;12.17;72.53
24013;BME280;12220;50.194;18.948;2023-05-07T01:19:36;102049.14;;;12.18;72.56
24013;BME280;12220;50.194;18.948;2023-05-07T01:21:38;102053.85;;;12.16;72.54
24013;BME280;12220;50.194;18.948;2023-05-07T01:23:41;102057.55;;;12.15;72.46
24013;BME280;12220;50.194;18.948;2023-05-07T01:25:52;102055.95;;;12.11;72.45
24013;BME280;12220;50.194;18.948;2023-05-07T01:28:10;102049.84;;;12.06;72.53
24013;BME280;12220;50.194;18.948;2023-05-07T01:30:12;102053.55;;;12.05;72.65
24013;BME280;12220;50.194;18.948;2023-05-07T01:32:13;102055.43;;;12.05;72.74
24013;BME280;12220;50.194;18.948;2023-05-07T01:34:17;102060.83;;;12.06;72.82
24013;BME280;12220;50.194;18.948;2023-05-07T01:36:25;102058.87;;;12.08;72.83
24013;BME280;12220;50.194;18.948;2023-05-07T01:38:28;102051.54;;;12.09;72.84
24013;BME280;12220;50.194;18.948;2023-05-07T01:40:31;102051.54;;;12.09;72.80
24013;BME280;12220;50.194;18.948;2023-05-07T01:42:32;102055.25;;;12.08;72.79
24013;BME280;12220;50.194;18.948;2023-05-07T01:44:40;102054.34;;;12.07;72.78
24013;BME280;12220;50.194;18.948;2023-05-07T01:46:41;102055.33;;;12.06;72.82
24013;BME280;12220;50.194;18.948;2023-05-07T01:48:43;102051.68;;;12.06;72.89
24013;BME280;12220;50.194;18.948;2023-05-07T01:50:47;102058.34;;;12.01;72.87
24013;BME280;12220;50.194;18.948;2023-05-07T01:52:55;102061.31;;;11.97;72.94
24013;BME280;12220;50.194;18.948;2023-05-07T01:54:57;102058.75;;;11.94;73.11
24013;BME280;12220;50.194;18.948;2023-05-07T01:56:58;102058.88;;;11.91;73.04
24013;BME280;12220;50.194;18.948;2023-05-07T01:58:59;102055.34;;;11.89;73.06
24013;BME280;12220;50.194;18.948;2023-05-07T02:01:12;102057.27;;;11.86;73.05
24013;BME280;12220;50.194;18.948;2023-05-07T02:03:13;102054.61;;;11.85;73.12
24013;BME280;12220;50.194;18.948;2023-05-07T02:05:15;102058.35;;;11.84;73.19
24013;BME280;12220;50.194;18.948;2023-05-07T02:07:16;102057.45;;;11.83;73.25
24013;BME280;12220;50.194;18.948;2023-05-07T02:09:25;102061.01;;;11.85;73.24
24013;BME280;12220;50.194;18.948;2023-05-07T02:11:26;102060.20;;;11.83;73.23
24013;BME280;12220;50.194;18.948;2023-05-07T02:13:32;102065.59;;;11.85;73.27
24013;BME280;12220;50.194;18.948;2023-05-07T02:15:35;102055.52;;;11.85;73.32
24013;BME280;12220;50.194;18.948;2023-05-07T02:20:01;102059.22;;;11.84;73.19
24013;BME280;12220;50.194;18.948;2023-05-07T02:22:04;102056.66;;;11.81;73.15
24013;BME280;12220;50.194;18.948;2023-05-07T02:24:06;102056.73;;;11.80;73.16
24013;BME280;12220;50.194;18.948;2023-05-07T02:26:07;102053.16;;;11.78;73.22
24013;BME280;12220;50.194;18.948;2023-05-07T02:28:16;102060.53;;;11.77;73.17
24013;BME280;12220;50.194;18.948;2023-05-07T02:30:18;102050.51;;;11.76;73.21
24013;BME280;12220;50.194;18.948;2023-05-07T02:32:21;102057.78;;;11.77;73.26
24013;BME280;12220;50.194;18.948;2023-05-07T02:34:24;102060.53;;;11.77;73.25
24013;BME280;12220;50.194;18.948;2023-05-07T02:36:31;102058.66;;;11.78;73.17
24013;BME280;12220;50.194;18.948;2023-05-07T02:38:33;102061.48;;;11.76;73.15
24013;BME280;12220;50.194;18.948;2023-05-07T02:40:35;102056.17;;;11.73;73.18
24013;BME280;12220;50.194;18.948;2023-05-07T02:42:40;102059.00;;;11.72;73.11
24013;BME280;12220;50.194;18.948;2023-05-07T02:44:46;102063.62;;;11.71;73.10
24013;BME280;12220;50.194;18.948;2023-05-07T02:46:48;102069.27;;;11.68;73.07
24013;BME280;12220;50.194;18.948;2023-05-07T02:48:49;102059.34;;;11.65;73.01
24013;BME280;12220;50.194;18.948;2023-05-07T02:50:50;102069.66;;;11.60;73.09
24013;BME280;12220;50.194;18.948;2023-05-07T02:53:01;102071.85;;;11.54;73.04
24013;BME280;12220;50.194;18.948;2023-05-07T02:55:06;102070.32;;;11.48;73.09
24013;BME280;12220;50.194;18.948;2023-05-07T02:57:07;102071.45;;;11.44;73.17
24013;BME280;12220;50.194;18.948;2023-05-07T02:59:09;102075.15;;;11.43;73.18
24013;BME280;12220;50.194;18.948;2023-05-07T03:01:16;102081.76;;;11.39;73.24
24013;BME280;12220;50.194;18.948;2023-05-07T03:03:18;102082.90;;;11.34;73.21
24013;BME280;12220;50.194;18.948;2023-05-07T03:05:19;102083.08;;;11.31;73.28
24013;BME280;12220;50.194;18.948;2023-05-07T03:07:20;102088.55;;;11.31;73.37
24013;BME280;12220;50.194;18.948;2023-05-07T03:09:31;101722.98;;;9.03;73.15
24013;BME280;12220;50.194;18.948;2023-05-07T03:11:33;102084.98;;;11.29;73.37
24013;BME280;12220;50.194;18.948;2023-05-07T03:13:37;102088.69;;;11.28;73.33
24013;BME280;12220;50.194;18.948;2023-05-07T03:15:38;102092.41;;;11.27;73.35
24013;BME280;12220;50.194;18.948;2023-05-07T03:17:46;102090.48;;;11.29;73.35
24013;BME280;12220;50.194;18.948;2023-05-07T03:19:48;102094.18;;;11.28;73.27
24013;BME280;12220;50.194;18.948;2023-05-07T03:21:49;102102.48;;;11.27;73.23
24013;BME280;12220;50.194;18.948;2023-05-07T03:23:50;102106.21;;;11.26;73.12
24013;BME280;12220;50.194;18.948;2023-05-07T03:26:01;102113.60;;;11.24;73.20
24013;BME280;12220;50.194;18.948;2023-05-07T03:28:03;102108.36;;;11.19;73.23
24013;BME280;12220;50.194;18.948;2023-05-07T03:30:07;102109.40;;;11.16;73.21
24013;BME280;12220;50.194;18.948;2023-05-07T03:32:10;102111.34;;;11.14;73.18
24013;BME280;12220;50.194;18.948;2023-05-07T03:34:16;102115.20;;;11.10;73.24
24013;BME280;12220;50.194;18.948;2023-05-07T03:36:23;102112.63;;;11.07;73.25
24013;BME280;12220;50.194;18.948;2023-05-07T03:38:27;102118.98;;;11.08;73.37
24013;BME280;12220;50.194;18.948;2023-05-07T03:40:29;102116.16;;;11.09;73.46
24013;BME280;12220;50.194;18.948;2023-05-07T03:42:34;102112.38;;;11.12;73.45
24013;BME280;12220;50.194;18.948;2023-05-07T03:44:35;102111.42;;;11.13;73.47
24013;BME280;12220;50.194;18.948;2023-05-07T03:46:37;102121.56;;;11.11;73.34
24013;BME280;12220;50.194;18.948;2023-05-07T03:48:41;102127.13;;;11.09;73.33
24013;BME280;12220;50.194;18.948;2023-05-07T03:50:47;102126.24;;;11.09;73.28
24013;BME280;12220;50.194;18.948;2023-05-07T03:52:48;102128.11;;;11.08;73.27
24013;BME280;12220;50.194;18.948;2023-05-07T03:54:50;102130.86;;;11.08;73.25
24013;BME280;12220;50.194;18.948;2023-05-07T03:56:51;102121.72;;;11.08;73.17
24013;BME280;12220;50.194;18.948;2023-05-07T03:59:02;102129.06;;;11.07;73.10
24013;BME280;12220;50.194;18.948;2023-05-07T04:01:03;102127.29;;;11.06;73.14
24013;BME280;12220;50.194;18.948;2023-05-07T04:03:04;102131.81;;;11.07;73.19
24013;BME280;12220;50.194;18.948;2023-05-07T04:05:06;102133.68;;;11.07;73.15
24013;BME280;12220;50.194;18.948;2023-05-07T04:07:16;102138.24;;;11.06;73.04
24013;BME280;12220;50.194;18.948;2023-05-07T04:09:21;102139.28;;;11.04;72.99
24013;BME280;12220;50.194;18.948;2023-05-07T04:11:22;102141.23;;;11.02;72.99
24013;BME280;12220;50.194;18.948;2023-05-07T04:13:24;102151.30;;;11.01;73.03
24013;BME280;12220;50.194;18.948;2023-05-07T04:15:31;102152.26;;;11.00;72.96
24013;BME280;12220;50.194;18.948;2023-05-07T04:17:33;102156.95;;;10.98;72.91
24013;BME280;12220;50.194;18.948;2023-05-07T04:19:34;102162.71;;;10.92;72.95
24013;BME280;12220;50.194;18.948;2023-05-07T04:21:36;102154.63;;;10.89;73.08
24013;BME280;12220;50.194;18.948;2023-05-07T04:23:47;102155.82;;;10.83;73.13
24013;BME280;12220;50.194;18.948;2023-05-07T04:25:50;102158.80;;;10.78;73.19
24013;BME280;12220;50.194;18.948;2023-05-07T04:27:51;102168.04;;;10.76;73.27
24013;BME280;12220;50.194;18.948;2023-05-07T04:29:53;102163.55;;;10.75;73.39
24013;BME280;12220;50.194;18.948;2023-05-07T04:32:01;102170.13;;;10.71;73.37
24013;BME280;12220;50.194;18.948;2023-05-07T04:34:06;102178.42;;;10.69;73.37
24013;BME280;12220;50.194;18.948;2023-05-07T04:36:08;102192.20;;;10.68;73.41
24013;BME280;12220;50.194;18.948;2023-05-07T04:38:09;102215.07;;;10.67;73.34
24013;BME280;12220;50.194;18.948;2023-05-07T04:40:17;102184.21;;;10.63;73.27
24013;BME280;12220;50.194;18.948;2023-05-07T04:42:18;102194.26;;;10.62;73.30
24013;BME280;12220;50.194;18.948;2023-05-07T04:44:19;102199.73;;;10.62;73.29
24013;BME280;12220;50.194;18.948;2023-05-07T04:46:21;102207.07;;;10.62;73.22
24013;BME280;12220;50.194;18.948;2023-05-07T04:48:31;102208.91;;;10.61;73.24
24013;BME280;12220;50.194;18.948;2023-05-07T04:50:33;102215.29;;;10.62;73.24
24013;BME280;12220;50.194;18.948;2023-05-07T04:52:34;102215.29;;;10.62;73.20
24013;BME280;12220;50.194;18.948;2023-05-07T04:54:36;102218.18;;;10.59;73.00
24013;BME280;12220;50.194;18.948;2023-05-07T04:56:46;102222.81;;;10.57;72.99
24013;BME280;12220;50.194;18.948;2023-05-07T04:58:48;102222.81;;;10.57;73.05
24013;BME280;12220;50.194;18.948;2023-05-07T05:00:49;102221.13;;;10.54;73.10
24013;BME280;12220;50.194;18.948;2023-05-07T05:02:51;102226.61;;;10.54;73.04
24013;BME280;12220;50.194;18.948;2023-05-07T05:05:01;102226.61;;;10.54;73.07
24013;BME280;12220;50.194;18.948;2023-05-07T05:07:06;102228.30;;;10.57;73.17
24013;BME280;12220;50.194;18.948;2023-05-07T05:09:07;102225.48;;;10.58;73.00
24013;BME280;12220;50.194;18.948;2023-05-07T05:11:08;102230.09;;;10.58;72.97
24013;BME280;12220;50.194;18.948;2023-05-07T05:13:16;102225.48;;;10.58;72.95
24013;BME280;12220;50.194;18.948;2023-05-07T05:15:18;102230.97;;;10.58;72.95
24013;BME280;12220;50.194;18.948;2023-05-07T05:17:20;102237.20;;;10.62;72.94
24013;BME280;12220;50.194;18.948;2023-05-07T05:19:21;102234.39;;;10.63;72.82
24013;BME280;12220;50.194;18.948;2023-05-07T05:21:31;102238.08;;;10.62;72.75
24013;BME280;12220;50.194;18.948;2023-05-07T05:23:33;102244.48;;;10.63;72.76
24013;BME280;12220;50.194;18.948;2023-05-07T05:25:34;102245.43;;;10.62;72.69
24013;BME280;12220;50.194;18.948;2023-05-07T05:27:35;102240.97;;;10.59;72.59
24013;BME280;12220;50.194;18.948;2023-05-07T05:29:46;102247.33;;;10.60;72.62
24013;BME280;12220;50.194;18.948;2023-05-07T05:31:48;102250.21;;;10.57;72.57
24013;BME280;12220;50.194;18.948;2023-05-07T05:33:50;102256.60;;;10.57;72.61
24013;BME280;12220;50.194;18.948;2023-05-07T05:35:51;102260.14;;;10.59;72.63
24013;BME280;12220;50.194;18.948;2023-05-07T05:38:02;102252.80;;;10.60;72.60
24013;BME280;12220;50.194;18.948;2023-05-07T05:40:04;102264.67;;;10.60;72.56
24013;BME280;12220;50.194;18.948;2023-05-07T05:42:05;102259.20;;;10.60;72.47
24013;BME280;12220;50.194;18.948;2023-05-07T05:44:07;102077.63;;;9.38;72.27
24013;BME280;12220;50.194;18.948;2023-05-07T05:46:16;102266.50;;;10.60;72.29
24013;BME280;12220;50.194;18.948;2023-05-07T05:48:17;102272.41;;;10.51;72.34
24013;BME280;12220;50.194;18.948;2023-05-07T05:50:19;102268.98;;;10.45;72.21
24013;BME280;12220;50.194;18.948;2023-05-07T05:52:20;102266.38;;;10.42;72.24
24013;BME280;12220;50.194;18.948;2023-05-07T05:54:31;102268.46;;;10.37;72.28
24013;BME280;12220;50.194;18.948;2023-05-07T05:56:33;102274.00;;;10.36;72.44
24013;BME280;12220;50.194;18.948;2023-05-07T05:58:34;102274.88;;;10.36;72.49
24013;BME280;12220;50.194;18.948;2023-05-07T06:00:36;102274.98;;;10.33;72.48
24013;BME280;12220;50.194;18.948;2023-05-07T06:02:47;102278.68;;;10.32;72.55
24013;BME280;12220;50.194;18.948;2023-05-07T06:04:48;102282.29;;;10.34;72.60
24013;BME280;12220;50.194;18.948;2023-05-07T06:06:49;102275.77;;;10.37;72.60
24013;BME280;12220;50.194;18.948;2023-05-07T06:08:51;102286.61;;;10.40;72.49
24013;BME280;12220;50.194;18.948;2023-05-07T06:11:02;102292.88;;;10.42;72.44
24013;BME280;12220;50.194;18.948;2023-05-07T06:13:04;102292.01;;;10.41;72.37
24013;BME280;12220;50.194;18.948;2023-05-07T06:15:06;102287.48;;;10.40;72.32
24013;BME280;12220;50.194;18.948;2023-05-07T06:17:07;102292.95;;;10.40;72.25
24013;BME280;12220;50.194;18.948;2023-05-07T06:19:16;102298.58;;;10.37;72.17
24013;BME280;12220;50.194;18.948;2023-05-07T06:21:23;102303.39;;;10.30;72.14
24013;BME280;12220;50.194;18.948;2023-05-07T06:23:25;102303.45;;;10.29;72.15
24013;BME280;12220;50.194;18.948;2023-05-07T06:25:26;102304.55;;;10.25;72.13
24013;BME280;12220;50.194;18.948;2023-05-07T06:27:31;102297.63;;;10.16;72.17
24013;BME280;12220;50.194;18.948;2023-05-07T06:29:33;102307.13;;;10.07;72.26
24013;BME280;12220;50.194;18.948;2023-05-07T06:31:34;102303.58;;;10.05;72.39
24013;BME280;12220;50.194;18.948;2023-05-07T06:33:36;102304.59;;;10.03;72.39
24013;BME280;12220;50.194;18.948;2023-05-07T06:35:46;102310.27;;;9.98;72.40
24013;BME280;12220;50.194;18.948;2023-05-07T06:37:47;102312.23;;;9.94;72.46
24013;BME280;12220;50.194;18.948;2023-05-07T06:39:49;102322.30;;;9.94;72.58
24013;BME280;12220;50.194;18.948;2023-05-07T06:41:50;102318.68;;;9.93;72.59
24013;BME280;12220;50.194;18.948;2023-05-07T06:44:02;102318.74;;;9.92;72.58
24013;BME280;12220;50.194;18.948;2023-05-07T06:46:05;102316.95;;;9.91;72.67
24013;BME280;12220;50.194;18.948;2023-05-07T06:48:09;102317.84;;;9.91;72.73
24013;BME280;12220;50.194;18.948;2023-05-07T06:50:10;102324.09;;;9.95;72.71
24013;BME280;12220;50.194;18.948;2023-05-07T06:52:16;102325.81;;;9.98;72.70
24013;BME280;12220;50.194;18.948;2023-05-07T06:54:18;102325.74;;;9.99;72.67
24013;BME280;12220;50.194;18.948;2023-05-07T06:56:19;102323.81;;;10.01;72.62
24013;BME280;12220;50.194;18.948;2023-05-07T06:58:21;102322.80;;;10.04;72.58
24013;BME280;12220;50.194;18.948;2023-05-07T07:00:31;102332.80;;;10.05;72.51
24013;BME280;12220;50.194;18.948;2023-05-07T07:02:32;102333.89;;;10.01;72.46
24013;BME280;12220;50.194;18.948;2023-05-07T07:04:34;102335.91;;;9.95;72.38
24013;BME280;12220;50.194;18.948;2023-05-07T07:06:35;102332.43;;;9.92;72.36
24013;BME280;12220;50.194;18.948;2023-05-07T07:08:46;102336.23;;;9.88;72.27
24013;BME280;12220;50.194;18.948;2023-05-07T07:10:47;102340.05;;;9.84;72.34
24013;BME280;12220;50.194;18.948;2023-05-07T07:12:50;102339.18;;;9.83;72.47
24013;BME280;12220;50.194;18.948;2023-05-07T07:14:52;102342.73;;;9.85;72.56
24013;BME280;12220;50.194;18.948;2023-05-07T07:17:04;102338.20;;;9.84;72.47
24013;BME280;12220;50.194;18.948;2023-05-07T07:19:06;102342.98;;;9.79;72.45
24013;BME280;12220;50.194;18.948;2023-05-07T07:21:10;102345.72;;;9.79;72.43
24013;BME280;12220;50.194;18.948;2023-05-07T07:23:11;102353.05;;;9.79;72.45
24013;BME280;12220;50.194;18.948;2023-05-07T07:25:16;102351.33;;;9.76;72.31
24013;BME280;12220;50.194;18.948;2023-05-07T07:27:17;102359.59;;;9.74;72.23
24013;BME280;12220;50.194;18.948;2023-05-07T07:29:19;102355.88;;;9.75;72.21
24013;BME280;12220;50.194;18.948;2023-05-07T07:31:20;102145.19;;;8.44;72.04
24013;BME280;12220;50.194;18.948;2023-05-07T07:33:31;102371.74;;;9.67;71.88
24013;BME280;12220;50.194;18.948;2023-05-07T07:35:32;102367.22;;;9.66;71.90
24013;BME280;12220;50.194;18.948;2023-05-07T07:37:33;102372.69;;;9.66;71.98
24013;BME280;12220;50.194;18.948;2023-05-07T07:39:35;102381.68;;;9.70;72.05
24013;BME280;12220;50.194;18.948;2023-05-07T07:41:46;102376.96;;;9.73;71.95
24013;BME280;12220;50.194;18.948;2023-05-07T07:43:49;102385.10;;;9.75;71.91
24013;BME280;12220;50.194;18.948;2023-05-07T07:45:51;102400.52;;;9.77;71.87
24013;BME280;12220;50.194;18.948;2023-05-07T07:47:54;102371.22;;;9.80;71.80
24013;BME280;12220;50.194;18.948;2023-05-07T07:50:01;102177.05;;;8.67;71.59
24013;BME280;12220;50.194;18.948;2023-05-07T07:52:02;102381.10;;;9.84;71.62
24013;BME280;12220;50.194;18.948;2023-05-07T07:54:04;102383.77;;;9.85;71.54
24013;BME280;12220;50.194;18.948;2023-05-07T07:56:05;102322.42;;;9.47;71.40
24013;BME280;12220;50.194;18.948;2023-05-07T07:58:16;102393.77;;;9.86;71.23
24013;BME280;12220;50.194;18.948;2023-05-07T08:00:18;102386.51;;;9.85;71.05
24013;BME280;12220;50.194;18.948;2023-05-07T08:02:19;102382.95;;;9.83;70.94
24013;BME280;12220;50.194;18.948;2023-05-07T08:04:21;102392.98;;;9.83;71.00
24013;BME280;12220;50.194;18.948;2023-05-07T08:06:31;102397.52;;;9.84;70.97
24013;BME280;12220;50.194;18.948;2023-05-07T08:08:32;102391.09;;;9.85;70.99
24013;BME280;12220;50.194;18.948;2023-05-07T08:10:33;102396.44;;;9.88;70.94
24013;BME280;12220;50.194;18.948;2023-05-07T08:12:39;102396.25;;;9.92;70.97
24013;BME280;12220;50.194;18.948;2023-05-07T08:14:46;102393.26;;;9.99;70.84
24013;BME280;12220;50.194;18.948;2023-05-07T08:16:47;102397.71;;;10.01;70.75
24013;BME280;12220;50.194;18.948;2023-05-07T08:18:48;102394.85;;;10.04;70.73
24013;BME280;12220;50.194;18.948;2023-05-07T08:20:50;102399.18;;;10.10;70.67
24013;BME280;12220;50.194;18.948;2023-05-07T08:23:01;102398.23;;;10.11;70.56
24013;BME280;12220;50.194;18.948;2023-05-07T08:25:05;102398.17;;;10.12;70.49
24013;BME280;12220;50.194;18.948;2023-05-07T08:27:06;102400.77;;;10.16;70.41
24013;BME280;12220;50.194;18.948;2023-05-07T08:29:07;102413.32;;;10.21;70.28
24013;BME280;12220;50.194;18.948;2023-05-07T08:31:16;102408.58;;;10.25;70.03
24013;BME280;12220;50.194;18.948;2023-05-07T08:33:17;102407.77;;;10.23;69.73
24013;BME280;12220;50.194;18.948;2023-05-07T08:35:18;102408.58;;;10.25;69.74
24013;BME280;12220;50.194;18.948;2023-05-07T08:37:20;102422.28;;;10.25;69.77
24013;BME280;12220;50.194;18.948;2023-05-07T08:39:31;102414.06;;;10.25;69.78
24013;BME280;12220;50.194;18.948;2023-05-07T08:41:35;102409.36;;;10.28;69.77
24013;BME280;12220;50.194;18.948;2023-05-07T08:43:37;102418.45;;;10.29;69.50
24013;BME280;12220;50.194;18.948;2023-05-07T08:45:41;102427.52;;;10.31;69.52
24013;BME280;12220;50.194;18.948;2023-05-07T08:47:55;102432.90;;;10.34;69.60
24013;BME280;12220;50.194;18.948;2023-05-07T08:50:08;102429.00;;;10.40;69.60
24013;BME280;12220;50.194;18.948;2023-05-07T08:52:09;102434.42;;;10.41;69.29
24013;BME280;12220;50.194;18.948;2023-05-07T08:54:16;102433.30;;;10.45;69.41
24013;BME280;12220;50.194;18.948;2023-05-07T08:56:18;102437.77;;;10.48;69.26
24013;BME280;12220;50.194;18.948;2023-05-07T08:58:22;102438.80;;;10.45;68.99
24013;BME280;12220;50.194;18.948;2023-05-07T09:00:23;102442.45;;;10.46;68.89
24013;BME280;12220;50.194;18.948;2023-05-07T09:02:28;102443.71;;;10.37;68.73
24013;BME280;12220;50.194;18.948;2023-05-07T09:04:29;102451.09;;;10.35;68.69
24013;BME280;12220;50.194;18.948;2023-05-07T09:06:37;102450.37;;;10.30;68.80
24013;BME280;12220;50.194;18.948;2023-05-07T09:08:50;102454.58;;;10.17;68.77
24013;BME280;12220;50.194;18.948;2023-05-07T09:10:53;102453.80;;;10.13;68.95
24013;BME280;12220;50.194;18.948;2023-05-07T09:13:02;102457.38;;;10.15;69.11
24013;BME280;12220;50.194;18.948;2023-05-07T09:15:02;102456.34;;;10.18;69.32
24013;BME280;12220;50.194;18.948;2023-05-07T09:17:05;102455.26;;;10.22;69.40
24013;BME280;12220;50.194;18.948;2023-05-07T09:19:07;102463.28;;;10.26;69.35
24013;BME280;12220;50.194;18.948;2023-05-07T09:21:15;102460.45;;;10.29;69.34
24013;BME280;12220;50.194;18.948;2023-05-07T09:23:16;102454.84;;;10.33;69.38
24013;BME280;12220;50.194;18.948;2023-05-07T09:27:31;102463.02;;;10.34;68.91
24013;BME280;12220;50.194;18.948;2023-05-07T09:29:32;102464.78;;;10.35;68.84
24013;BME280;12220;50.194;18.948;2023-05-07T09:31:37;102463.93;;;10.33;68.82
24013;BME280;12220;50.194;18.948;2023-05-07T09:33:39;102475.02;;;10.30;68.76
24013;BME280;12220;50.194;18.948;2023-05-07T09:35:41;102474.16;;;10.28;68.76
24013;BME280;12220;50.194;18.948;2023-05-07T09:37:42;102472.28;;;10.30;68.79
24013;BME280;12220;50.194;18.948;2023-05-07T09:39:50;102482.23;;;10.33;68.77
24013;BME280;12220;50.194;18.948;2023-05-07T09:41:52;102469.38;;;10.35;68.72
24013;BME280;12220;50.194;18.948;2023-05-07T09:43:56;102466.58;;;10.36;68.69
24013;BME280;12220;50.194;18.948;2023-05-07T09:45:58;102473.78;;;10.39;68.52
24013;BME280;12220;50.194;18.948;2023-05-07T09:48:06;102480.06;;;10.41;68.49
24013;BME280;12220;50.194;18.948;2023-05-07T09:50:08;102471.92;;;10.39;68.59
24013;BME280;12220;50.194;18.948;2023-05-07T09:52:13;102478.25;;;10.41;68.47
24013;BME280;12220;50.194;18.948;2023-05-07T09:54:15;102487.34;;;10.42;68.42
24013;BME280;12220;50.194;18.948;2023-05-07T09:56:21;102484.59;;;10.42;68.33
24013;BME280;12220;50.194;18.948;2023-05-07T09:58:23;102488.34;;;10.39;68.05
24013;BME280;12220;50.194;18.948;2023-05-07T10:00:27;102495.88;;;10.34;68.04
24013;BME280;12220;50.194;18.948;2023-05-07T10:02:35;102494.12;;;10.32;68.09
24013;BME280;12220;50.194;18.948;2023-05-07T10:04:37;102490.45;;;10.33;68.22
24013;BME280;12220;50.194;18.948;2023-05-07T10:06:39;102497.64;;;10.35;68.36
24013;BME280;12220;50.194;18.948;2023-05-07T10:08:43;102498.42;;;10.39;68.40
24013;BME280;12220;50.194;18.948;2023-05-07T10:10:45;102511.98;;;10.42;68.41
24013;BME280;12220;50.194;18.948;2023-05-07T10:12:50;102505.63;;;10.41;68.40
24013;BME280;12220;50.194;18.948;2023-05-07T10:14:52;102510.91;;;10.46;68.24
24013;BME280;12220;50.194;18.948;2023-05-07T10:16:55;102512.73;;;10.45;68.06
24013;BME280;12220;50.194;18.948;2023-05-07T10:18:58;102518.12;;;10.49;67.95
24013;BME280;12220;50.194;18.948;2023-05-07T10:21:21;102509.96;;;10.47;67.83
24013;BME280;12220;50.194;18.948;2023-05-07T10:23:27;102515.30;;;10.50;67.83
24013;BME280;12220;50.194;18.948;2023-05-07T10:25:31;102517.98;;;10.52;67.80
24013;BME280;12220;50.194;18.948;2023-05-07T10:27:33;102510.51;;;10.55;67.82
24013;BME280;12220;50.194;18.948;2023-05-07T10:29:45;102509.44;;;10.59;67.77
24013;BME280;12220;50.194;18.948;2023-05-07T10:31:57;102516.58;;;10.63;67.75
24013;BME280;12220;50.194;18.948;2023-05-07T10:34:12;102525.41;;;10.70;67.74
24013;BME280;12220;50.194;18.948;2023-05-07T10:36:25;102527.06;;;10.74;67.66
24013;BME280;12220;50.194;18.948;2023-05-07T10:38:28;102521.46;;;10.77;67.60
24013;BME280;12220;50.194;18.948;2023-05-07T10:40:30;102526.84;;;10.80;67.52
24013;BME280;12220;50.194;18.948;2023-05-07T10:42:32;102523.05;;;10.83;67.38
24013;BME280;12220;50.194;18.948;2023-05-07T10:44:40;102516.69;;;10.83;67.37